createdAt,value
2018-07-04T00:00:50.085Z,100342.06
2018-07-04T00:03:36.638Z,100346.79
2018-07-04T00:06:23.055Z,100346.18
2018-07-04T00:09:10.034Z,100349.13
2018-07-04T00:11:56.547Z,100346.16
2018-07-04T00:14:43.077Z,100347.12
2018-07-04T00:17:29.718Z,100351.11
2018-07-04T00:20:16.448Z,100351.56
2018-07-04T00:23:02.971Z,100344.27
2018-07-04T00:25:49.153Z,100346.86
2018-07-04T00:28:35.652Z,100352.46
2018-07-04T00:31:22.137Z,100348.34
2018-07-04T00:34:08.518Z,100349.34
2018-07-04T00:36:54.817Z,100349.34
2018-07-04T00:39:41.239Z,100347.16
2018-07-04T00:42:27.470Z,100346.63
2018-07-04T00:45:13.897Z,100343.59
2018-07-04T00:48:00.234Z,100339.92
2018-07-04T00:50:46.596Z,100338.02
2018-07-04T00:53:32.909Z,100334.38
2018-07-04T00:56:19.308Z,100341.23
2018-07-04T00:59:05.631Z,100331.03
2018-07-04T01:01:52.215Z,100334.50
2018-07-04T01:04:38.771Z,100331.62
2018-07-04T01:07:25.143Z,100335.02
2018-07-04T01:10:11.856Z,100335.35
2018-07-04T01:12:58.357Z,100336.22
2018-07-04T01:15:44.890Z,100330.30
2018-07-04T01:18:31.199Z,100330.23
2018-07-04T01:21:17.674Z,100326.05
2018-07-04T01:24:04.297Z,100323.84
2018-07-04T01:26:50.880Z,100317.61
2018-07-04T01:29:37.307Z,100320.71
2018-07-04T01:32:23.640Z,100314.28
2018-07-04T01:35:03.963Z,100318.03
2018-07-04T01:37:50.652Z,100318.06
2018-07-04T01:40:37.021Z,100318.42
2018-07-04T01:43:23.349Z,100311.16
2018-07-04T01:46:09.926Z,100311.87
2018-07-04T01:48:56.121Z,100306.23
2018-07-04T01:51:42.313Z,100309.64
2018-07-04T01:54:28.679Z,100314.22
2018-07-04T01:57:15.237Z,100310.11
2018-07-04T02:00:01.772Z,100309.64
2018-07-04T02:02:48.322Z,100310.03
2018-07-04T02:05:34.926Z,100308.77
2018-07-04T02:08:21.295Z,100302.04
2018-07-04T02:11:07.654Z,100309.05
2018-07-04T02:13:53.973Z,100310.96
2018-07-04T02:16:40.195Z,100299.02
2018-07-04T02:19:26.656Z,100310.15
2018-07-04T02:22:12.787Z,100313.36
2018-07-04T02:24:59.259Z,100300.42
2018-07-04T02:27:45.684Z,100302.98
2018-07-04T02:30:31.987Z,100303.27
2018-07-04T02:33:18.381Z,100308.09
2018-07-04T02:36:04.851Z,100304.55
2018-07-04T02:38:51.105Z,100304.70
2018-07-04T02:41:37.582Z,100296.69
2018-07-04T02:44:24.121Z,100296.66
2018-07-04T02:47:14.603Z,100298.28
2018-07-04T02:50:01.033Z,100295.66
2018-07-04T02:52:48.034Z,100287.72
2018-07-04T02:55:34.692Z,100290.30
2018-07-04T02:58:21.062Z,100292.73
2018-07-04T03:01:07.769Z,100287.21
2018-07-04T03:03:54.000Z,100284.06
2018-07-04T03:06:40.253Z,100285.41
2018-07-04T03:09:26.632Z,100284.06
2018-07-04T03:12:13.037Z,100277.63
2018-07-04T03:14:59.583Z,100276.81
2018-07-04T03:17:46.047Z,100270.42
2018-07-04T03:20:32.074Z,100266.94
2018-07-04T03:23:18.451Z,100271.77
2018-07-04T03:26:04.639Z,100262.80
2018-07-04T03:28:51.184Z,100267.34
2018-07-04T03:31:37.540Z,100263.60
2018-07-04T03:34:24.055Z,100270.70
2018-07-04T03:37:10.488Z,100272.05
2018-07-04T03:39:57.115Z,100275.03
2018-07-04T03:42:43.609Z,100270.75
2018-07-04T03:45:29.959Z,100276.05
2018-07-04T03:48:16.487Z,100268.28
2018-07-04T03:51:02.966Z,100270.85
2018-07-04T03:53:49.411Z,100273.00
2018-07-04T03:56:35.913Z,100265.36
2018-07-04T03:59:22.226Z,100264.64
2018-07-04T04:02:08.606Z,100264.05
2018-07-04T04:04:55.177Z,100271.45
2018-07-04T04:07:41.475Z,100270.61
2018-07-04T04:10:27.934Z,100268.17
2018-07-04T04:13:14.358Z,100265.84
2018-07-04T04:16:00.853Z,100267.00
2018-07-04T04:18:47.287Z,100268.40
2018-07-04T04:21:33.659Z,100260.03
2018-07-04T04:24:20.169Z,100257.21
2018-07-04T04:27:06.682Z,100267.47
2018-07-04T04:29:53.147Z,100260.75
2018-07-04T04:32:39.650Z,100262.45
2018-07-04T04:35:26.076Z,100256.15
2018-07-04T04:38:12.470Z,100261.56
2018-07-04T04:40:58.938Z,100260.13
2018-07-04T04:43:45.158Z,100261.14
2018-07-04T04:46:31.871Z,100257.81
2018-07-04T04:49:18.376Z,100256.39
2018-07-04T04:52:04.772Z,100251.61
2018-07-04T04:54:51.337Z,100252.56
2018-07-04T04:57:37.842Z,100248.75
2018-07-04T05:00:24.221Z,100250.00
2018-07-04T05:03:04.650Z,100258.98
2018-07-04T05:05:51.118Z,100258.34
2018-07-04T05:08:37.569Z,100260.41
2018-07-04T05:11:24.103Z,100255.06
2018-07-04T05:14:10.698Z,100258.83
2018-07-04T05:16:56.782Z,100253.94
2018-07-04T05:19:43.302Z,100254.05
2018-07-04T05:22:29.807Z,100248.38
2018-07-04T05:25:16.213Z,100248.50
2018-07-04T05:28:02.768Z,100242.43
2018-07-04T05:30:48.957Z,100254.45
2018-07-04T05:33:35.423Z,100245.32
2018-07-04T05:36:21.736Z,100253.53
2018-07-04T05:39:08.037Z,100255.63
2018-07-04T05:41:54.262Z,100261.77
2018-07-04T05:44:40.769Z,100256.03
2018-07-04T05:47:26.956Z,100252.91
2018-07-04T05:50:13.464Z,100251.73
2018-07-04T05:52:59.978Z,100253.61
2018-07-04T05:55:46.513Z,100252.38
2018-07-04T05:58:27.125Z,100252.96
2018-07-04T06:01:13.712Z,100253.06
2018-07-04T06:04:00.282Z,100253.17
2018-07-04T06:06:46.642Z,100254.69
2018-07-04T06:09:33.061Z,100261.45
2018-07-04T06:12:19.144Z,100259.39
2018-07-04T06:15:05.549Z,100255.70
2018-07-04T06:17:51.864Z,100251.64
2018-07-04T06:20:38.351Z,100254.30
2018-07-04T06:23:24.780Z,100253.20
2018-07-04T06:26:11.156Z,100256.04
2018-07-04T06:28:57.656Z,100250.25
2018-07-04T06:31:44.175Z,100247.81
2018-07-04T06:34:30.741Z,100241.05
2018-07-04T06:37:17.077Z,100234.41
2018-07-04T06:39:44.942Z,100245.84
2018-07-04T06:42:12.809Z,100247.37
2018-07-04T06:44:40.620Z,100252.98
2018-07-04T06:47:08.469Z,100249.61
2018-07-04T06:49:36.299Z,100251.08
2018-07-04T06:52:04.141Z,100255.13
2018-07-04T06:54:31.965Z,100247.63
2018-07-04T06:56:59.805Z,100248.66
2018-07-04T06:59:27.744Z,100244.67
2018-07-04T07:02:13.145Z,100235.58
2018-07-04T07:05:00.570Z,100236.48
2018-07-04T07:07:47.033Z,100243.16
2018-07-04T07:10:33.569Z,100235.11
2018-07-04T07:13:20.216Z,100233.83
2018-07-04T07:16:06.823Z,100238.05
2018-07-04T07:18:53.501Z,100230.25
2018-07-04T07:21:39.790Z,100228.94
2018-07-04T07:24:26.158Z,100230.68
2018-07-04T07:27:12.606Z,100226.58
2018-07-04T07:29:59.107Z,100230.68
2018-07-04T07:32:45.521Z,100221.62
2018-07-04T07:35:32.173Z,100231.66
2018-07-04T07:38:18.500Z,100235.50
2018-07-04T07:41:04.915Z,100229.53
2018-07-04T07:43:51.422Z,100228.28
2018-07-04T07:46:37.787Z,100230.95
2018-07-04T07:49:24.298Z,100221.90
2018-07-04T07:52:10.723Z,100225.94
2018-07-04T07:54:56.865Z,100215.62
2018-07-04T07:57:43.149Z,100209.51
2018-07-04T08:00:29.825Z,100217.38
2018-07-04T08:03:16.323Z,100213.89
2018-07-04T08:06:02.835Z,100211.59
2018-07-04T08:08:49.352Z,100212.33
2018-07-04T08:27:21.488Z,100196.93
2018-07-04T08:30:07.855Z,100202.48
2018-07-04T08:32:54.350Z,100196.44
2018-07-04T08:35:40.512Z,100191.77
2018-07-04T08:38:26.972Z,100194.55
2018-07-04T08:41:13.387Z,100189.06
2018-07-04T08:43:53.739Z,100189.93
2018-07-04T08:46:40.315Z,100196.22
2018-07-04T08:49:26.774Z,100192.54
2018-07-04T08:52:13.260Z,100195.42
2018-07-04T08:54:53.815Z,100186.77
2018-07-04T08:57:40.394Z,100195.48
2018-07-04T09:00:26.873Z,100190.32
2018-07-04T09:03:13.163Z,100192.23
2018-07-04T09:05:59.620Z,100182.14
2018-07-04T09:08:46.101Z,100185.98
2018-07-04T09:11:32.681Z,100192.06
2018-07-04T09:14:19.186Z,100184.83
2018-07-04T09:17:05.577Z,100184.00
2018-07-04T09:19:52.130Z,100186.44
2018-07-04T09:22:38.484Z,100187.81
2018-07-04T09:25:24.667Z,100185.59
2018-07-04T09:28:11.105Z,100180.31
2018-07-04T09:30:57.815Z,100183.03
2018-07-04T09:33:44.277Z,100182.38
2018-07-04T09:36:30.700Z,100184.22
2018-07-04T09:39:16.938Z,100185.59
2018-07-04T09:42:03.235Z,100180.86
2018-07-04T09:44:49.517Z,100181.14
2018-07-04T09:47:36.232Z,100179.87
2018-07-04T09:50:22.779Z,100182.10
2018-07-04T09:53:09.322Z,100180.48
2018-07-04T09:55:56.604Z,100175.78
2018-07-04T09:58:43.160Z,100173.14
2018-07-04T10:01:29.566Z,100172.45
2018-07-04T10:04:16.077Z,100173.98
2018-07-04T10:07:02.493Z,100172.94
2018-07-04T10:09:49.076Z,100172.26
2018-07-04T10:12:35.608Z,100167.44
2018-07-04T10:15:21.752Z,100167.54
2018-07-04T10:18:08.163Z,100165.80
2018-07-04T10:20:54.639Z,100162.36
2018-07-04T10:23:41.203Z,100159.40
2018-07-04T10:26:27.807Z,100160.09
2018-07-04T10:29:14.209Z,100157.22
2018-07-04T10:32:01.304Z,100157.35
2018-07-04T10:34:47.928Z,100152.55
2018-07-04T10:37:34.306Z,100155.66
2018-07-04T10:40:20.683Z,100157.30
2018-07-04T10:43:06.949Z,100157.15
2018-07-04T10:45:53.421Z,100151.34
2018-07-04T10:48:40.053Z,100147.83
2018-07-04T10:51:26.773Z,100145.73
2018-07-04T10:54:13.311Z,100148.41
2018-07-04T10:56:59.642Z,100142.00
2018-07-04T10:59:46.137Z,100147.50
2018-07-04T11:02:32.982Z,100141.08
2018-07-04T11:05:19.427Z,100139.91
2018-07-04T11:08:05.788Z,100142.00
2018-07-04T11:10:52.295Z,100140.02
2018-07-04T11:13:38.732Z,100132.64
2018-07-04T11:16:24.814Z,100135.07
2018-07-04T11:19:11.175Z,100133.16
2018-07-04T11:21:57.550Z,100127.19
2018-07-04T11:24:44.112Z,100122.20
2018-07-04T11:27:30.429Z,100117.75
2018-07-04T11:30:16.964Z,100121.32
2018-07-04T11:33:03.565Z,100110.69
2018-07-04T11:35:50.124Z,100111.69
2018-07-04T11:38:36.821Z,100111.66
2018-07-04T11:41:23.373Z,100112.28
2018-07-04T11:44:09.812Z,100110.78
2018-07-04T11:46:37.623Z,100104.98
2018-07-04T11:49:05.522Z,100106.80
2018-07-04T11:51:33.406Z,100101.51
2018-07-04T11:54:01.207Z,100097.11
2018-07-04T11:56:29.023Z,100099.95
2018-07-04T11:58:56.832Z,100100.88
2018-07-04T12:01:24.671Z,100093.09
2018-07-04T12:04:11.214Z,100088.30
2018-07-04T12:06:57.977Z,100088.78
2018-07-04T12:09:25.873Z,100089.62
2018-07-04T12:11:53.693Z,100093.03
2018-07-04T12:14:21.512Z,100086.17
2018-07-04T12:16:49.414Z,100090.81
2018-07-04T12:19:17.315Z,100084.98
2018-07-04T12:21:45.227Z,100082.33
2018-07-04T12:24:13.100Z,100080.75
2018-07-04T12:26:41.016Z,100089.58
2018-07-04T12:29:09.181Z,100089.45
2018-07-04T12:31:37.139Z,100089.45
2018-07-04T12:34:05.032Z,100084.75
2018-07-04T12:36:33.327Z,100081.18
2018-07-04T12:39:01.136Z,100074.81
2018-07-04T12:41:29.320Z,100078.13
2018-07-04T12:43:57.244Z,100081.31
2018-07-04T12:46:25.075Z,100083.00
2018-07-04T12:48:56.956Z,100080.47
2018-07-04T12:51:24.832Z,100075.52
2018-07-04T12:53:56.226Z,100085.03
2018-07-04T12:56:42.657Z,100073.06
2018-07-04T12:59:29.138Z,100071.33
2018-07-04T13:02:15.694Z,100061.87
2018-07-04T13:05:02.218Z,100067.61
2018-07-04T13:07:49.043Z,100062.24
2018-07-04T13:10:35.306Z,100058.96
2018-07-04T13:13:21.605Z,100058.36
2018-07-04T13:16:08.061Z,100058.81
2018-07-04T13:18:54.433Z,100058.25
2018-07-04T13:21:40.986Z,100052.88
2018-07-04T13:24:27.549Z,100060.86
2018-07-04T13:27:14.965Z,100059.30
2018-07-04T13:30:01.755Z,100061.98
2018-07-04T13:32:48.226Z,100060.75
2018-07-04T13:35:34.817Z,100059.81
2018-07-04T13:38:21.399Z,100056.84
2018-07-04T13:41:07.890Z,100063.23
2018-07-04T13:43:54.300Z,100051.14
2018-07-04T13:46:43.312Z,100049.30
2018-07-04T13:49:29.632Z,100055.88
2018-07-04T13:52:15.956Z,100050.48
2018-07-04T13:55:02.545Z,100055.80
2018-07-04T13:57:49.011Z,100043.47
2018-07-04T14:00:35.521Z,100038.74
2018-07-04T14:03:22.042Z,100037.52
2018-07-04T14:06:08.376Z,100038.19
2018-07-04T14:08:54.901Z,100033.31
2018-07-04T14:11:41.294Z,100032.95
2018-07-04T14:14:27.717Z,100027.91
2018-07-04T14:17:14.402Z,100025.31
2018-07-04T14:20:00.733Z,100024.62
2018-07-04T14:22:47.198Z,100020.09
2018-07-04T14:25:34.160Z,100022.98
2018-07-04T14:28:20.663Z,100027.11
2018-07-04T14:31:07.086Z,100021.44
2018-07-04T14:33:53.604Z,100022.66
2018-07-04T14:36:39.833Z,100023.11
2018-07-04T14:39:26.176Z,100024.11
2018-07-04T14:42:12.627Z,100016.80
2018-07-04T14:44:58.736Z,100020.63
2018-07-04T14:47:45.171Z,100009.47
2018-07-04T14:50:31.581Z,100010.70
2018-07-04T14:53:18.075Z,100014.66
2018-07-04T14:56:05.213Z,100009.42
2018-07-04T14:58:51.642Z,100002.59
2018-07-04T15:01:37.950Z,100005.33
2018-07-04T15:04:24.256Z,100006.27
2018-07-04T15:07:10.631Z,100007.55
2018-07-04T15:09:57.096Z,100001.28
2018-07-04T15:12:43.470Z,100003.56
2018-07-04T15:15:29.893Z,99997.34
2018-07-04T15:18:16.316Z,99999.28
2018-07-04T15:21:02.771Z,99992.54
2018-07-04T15:23:49.143Z,99990.84
2018-07-04T15:26:36.260Z,99988.88
2018-07-04T15:29:22.745Z,99987.22
2018-07-04T15:32:09.277Z,99988.95
2018-07-04T15:34:55.813Z,99982.25
2018-07-04T15:37:42.258Z,99987.72
2018-07-04T15:40:28.556Z,99983.17
2018-07-04T15:43:15.179Z,99986.86
2018-07-04T15:46:01.603Z,99985.94
2018-07-04T15:48:48.218Z,99987.22
2018-07-04T15:51:34.556Z,99982.70
2018-07-04T15:54:20.959Z,99984.81
2018-07-04T15:57:07.381Z,99982.03
2018-07-04T15:59:53.782Z,99981.38
2018-07-04T16:02:40.008Z,99979.42
2018-07-04T16:05:26.366Z,99978.87
2018-07-04T16:08:12.788Z,99983.19
2018-07-04T16:10:59.130Z,99985.46
2018-07-04T16:13:45.651Z,99974.83
2018-07-04T16:16:32.045Z,99979.90
2018-07-04T16:19:18.500Z,99982.27
2018-07-04T16:22:04.908Z,99973.17
2018-07-04T16:24:51.425Z,99978.05
2018-07-04T16:27:37.960Z,99974.15
2018-07-04T16:30:24.405Z,99973.69
2018-07-04T16:33:10.806Z,99973.29
2018-07-04T16:35:57.033Z,99968.84
2018-07-04T16:38:43.544Z,99972.30
2018-07-04T16:41:30.049Z,99975.55
2018-07-04T16:44:16.542Z,99978.99
2018-07-04T16:47:02.989Z,99979.44
2018-07-04T16:49:49.465Z,99975.06
2018-07-04T16:52:35.906Z,99977.34
2018-07-04T16:55:22.521Z,99975.05
2018-07-04T16:58:09.067Z,99977.87
2018-07-04T17:00:55.448Z,99982.38
2018-07-04T17:03:41.973Z,99981.25
2018-07-04T17:06:28.470Z,99984.70
2018-07-04T17:09:14.756Z,99984.48
2018-07-04T17:12:02.104Z,99982.81
2018-07-04T17:14:48.684Z,99981.13
2018-07-04T17:17:34.988Z,99974.72
2018-07-04T17:20:21.553Z,99970.38
2018-07-04T17:23:07.936Z,99975.27
2018-07-04T17:25:54.427Z,99972.53
2018-07-04T17:28:40.966Z,99970.08
2018-07-04T17:31:27.464Z,99968.83
2018-07-04T17:34:13.746Z,99966.32
2018-07-04T17:37:00.277Z,99963.05
2018-07-04T17:39:46.986Z,99968.38
2018-07-04T17:42:33.349Z,99963.97
2018-07-04T17:45:19.807Z,99967.38
2018-07-04T17:48:06.308Z,99966.61
2018-07-04T17:50:52.751Z,99965.34
2018-07-04T17:53:39.265Z,99957.54
2018-07-04T17:56:25.876Z,99963.80
2018-07-04T17:59:12.320Z,99959.36
2018-07-04T18:01:58.860Z,99953.83
2018-07-04T18:04:45.405Z,99951.11
2018-07-04T18:07:31.948Z,99959.44
2018-07-04T18:10:18.753Z,99953.31
2018-07-04T18:13:05.109Z,99952.35
2018-07-04T18:15:51.527Z,99949.67
2018-07-04T18:18:37.929Z,99942.05
2018-07-04T18:21:24.941Z,99938.73
2018-07-04T18:24:11.380Z,99942.22
2018-07-04T18:26:57.925Z,99946.27
2018-07-04T18:29:44.332Z,99944.16
2018-07-04T18:32:30.917Z,99942.42
2018-07-04T18:35:17.509Z,99940.29
2018-07-04T18:38:04.019Z,99941.73
2018-07-04T18:40:50.493Z,99941.55
2018-07-04T18:43:36.958Z,99942.65
2018-07-04T18:46:23.521Z,99939.64
2018-07-04T18:49:10.088Z,99940.17
2018-07-04T18:51:56.565Z,99940.81
2018-07-04T18:54:43.110Z,99936.15
2018-07-04T18:57:29.629Z,99936.07
2018-07-04T19:00:16.061Z,99932.67
2018-07-04T19:03:02.268Z,99932.53
2018-07-04T19:05:48.595Z,99934.59
2018-07-04T19:08:35.154Z,99940.30
2018-07-04T19:11:21.238Z,99941.94
2018-07-04T19:14:07.554Z,99941.44
2018-07-04T19:16:54.013Z,99947.63
2018-07-04T19:19:40.617Z,99952.28
2018-07-04T19:22:27.326Z,99957.72
2018-07-04T19:25:13.943Z,99957.41
2018-07-04T19:28:00.228Z,99964.69
2018-07-04T19:30:46.595Z,99967.56
2018-07-04T19:33:33.138Z,99962.81
2018-07-04T19:36:19.845Z,99967.88
2018-07-04T19:39:07.012Z,99973.34
2018-07-04T19:41:53.295Z,99971.62
2018-07-04T19:44:39.761Z,99975.61
2018-07-04T19:47:26.275Z,99976.61
2018-07-04T19:50:12.875Z,99978.63
2018-07-04T19:52:59.661Z,99979.70
2018-07-04T19:55:46.282Z,99980.16
2018-07-04T19:58:32.779Z,99978.32
2018-07-04T20:01:19.427Z,99978.69
2018-07-04T20:04:05.920Z,99982.03
2018-07-04T20:06:52.390Z,99978.66
2018-07-04T20:09:38.915Z,99976.11
2018-07-04T20:12:25.307Z,99980.31
2018-07-04T20:15:11.806Z,99979.80
2018-07-04T20:17:58.217Z,99973.25
2018-07-04T20:20:44.777Z,99978.33
2018-07-04T20:23:31.328Z,99976.80
2018-07-04T20:26:17.438Z,99980.43
2018-07-04T20:29:03.914Z,99987.91
2018-07-04T20:31:50.436Z,99995.15
2018-07-04T20:34:36.913Z,99993.03
2018-07-04T20:37:23.545Z,99985.24
2018-07-04T20:40:09.882Z,99989.29
2018-07-04T20:42:56.241Z,99978.09
2018-07-04T20:45:42.870Z,99987.56
2018-07-04T20:48:29.476Z,99982.77
2018-07-04T20:51:16.042Z,99986.20
2018-07-04T20:54:02.544Z,99987.17
2018-07-04T20:56:49.212Z,99995.99
2018-07-04T20:59:35.742Z,99990.74
2018-07-04T21:02:22.320Z,99990.07
2018-07-04T21:05:08.733Z,99990.17
2018-07-04T21:07:50.234Z,99993.74
2018-07-04T21:10:36.750Z,99983.17
2018-07-04T21:13:23.368Z,99988.41
2018-07-04T21:16:09.691Z,99982.70
2018-07-04T21:18:56.053Z,99982.42
2018-07-04T21:21:42.491Z,99983.78
2018-07-04T21:24:29.074Z,99992.16
2018-07-04T21:27:15.640Z,99998.79
2018-07-04T21:30:02.079Z,100005.33
2018-07-04T21:32:48.693Z,99996.70
2018-07-04T21:35:35.020Z,99997.47
2018-07-04T21:38:21.356Z,100003.08
2018-07-04T21:41:07.845Z,99995.86
2018-07-04T21:43:54.645Z,99997.05
2018-07-04T21:46:41.060Z,99995.76
2018-07-04T21:49:27.498Z,100002.51
2018-07-04T21:52:13.930Z,99999.22
2018-07-04T21:55:00.402Z,100004.80
2018-07-04T21:57:46.889Z,99994.66
2018-07-04T22:00:33.440Z,99989.23
2018-07-04T22:03:19.933Z,99995.48
2018-07-04T22:06:06.306Z,99996.24
2018-07-04T22:08:52.840Z,100000.00
2018-07-04T22:11:39.285Z,99993.61
2018-07-04T22:14:25.759Z,100001.98
2018-07-04T22:17:12.172Z,100008.13
2018-07-04T22:19:58.768Z,100006.80
2018-07-04T22:22:45.071Z,100005.90
2018-07-04T22:25:31.478Z,100012.03
2018-07-04T22:28:18.049Z,100004.22
2018-07-04T22:31:04.880Z,100011.45
2018-07-04T22:33:51.205Z,100011.76
2018-07-04T22:36:37.647Z,100018.70
2018-07-04T22:39:24.155Z,100023.03
2018-07-04T22:42:10.593Z,100029.92
2018-07-04T22:44:57.094Z,100032.81
2018-07-04T22:47:43.208Z,100027.09
2018-07-04T22:50:29.634Z,100025.13
2018-07-04T22:53:16.102Z,100028.69
2018-07-04T22:56:02.636Z,100020.95
2018-07-04T22:58:49.064Z,100023.61
2018-07-04T23:01:35.530Z,100022.41
2018-07-04T23:04:21.920Z,100029.55
2018-07-04T23:07:08.357Z,100025.19
2018-07-04T23:09:54.748Z,100027.73
2018-07-04T23:12:41.265Z,100026.95
2018-07-04T23:15:27.869Z,100027.25
2018-07-04T23:18:14.243Z,100030.80
2018-07-04T23:21:00.944Z,100021.36
2018-07-04T23:23:48.163Z,100025.52
2018-07-04T23:26:34.717Z,100024.72
2018-07-04T23:29:21.236Z,100022.36
2018-07-04T23:32:07.568Z,100020.21
2018-07-04T23:34:53.951Z,100020.86
2018-07-04T23:37:40.377Z,100025.03
2018-07-04T23:40:26.865Z,100031.83
2018-07-04T23:43:13.501Z,100025.88
2018-07-04T23:45:59.960Z,100031.58
2018-07-04T23:48:40.351Z,100035.19
2018-07-04T23:51:26.853Z,100041.03
2018-07-04T23:54:13.613Z,100036.87
2018-07-04T23:56:59.929Z,100034.20
2018-07-04T23:59:46.499Z,100031.24
